createdAt,value
2023-03-26T00:01:39.335Z,6.88
2023-03-26T00:04:07.743Z,6.87
2023-03-26T00:06:40.014Z,6.86
2023-03-26T00:09:13.274Z,6.81
2023-03-26T00:11:42.595Z,6.80
2023-03-26T00:14:13.843Z,6.79
2023-03-26T00:16:42.750Z,6.78
2023-03-26T00:19:11.716Z,6.76
2023-03-26T00:21:39.083Z,6.80
2023-03-26T00:24:15.232Z,6.78
2023-03-26T00:26:44.683Z,6.80
2023-03-26T00:29:14.069Z,6.80
2023-03-26T00:31:46.510Z,6.75
2023-03-26T00:34:18.753Z,6.68
2023-03-26T00:36:47.300Z,6.67
2023-03-26T00:39:15.325Z,6.63
2023-03-26T00:41:43.252Z,6.57
2023-03-26T00:44:11.794Z,6.54
2023-03-26T00:46:39.657Z,6.50
2023-03-26T00:49:10.985Z,6.48
2023-03-26T00:51:39.362Z,6.46
2023-03-26T00:54:09.809Z,6.40
2023-03-26T00:56:37.246Z,6.40
2023-03-26T00:59:04.818Z,6.36
2023-03-26T01:01:32.618Z,6.33
2023-03-26T01:04:30.728Z,6.25
2023-03-26T01:07:02.792Z,6.18
2023-03-26T01:09:37.231Z,6.12
2023-03-26T01:12:08.682Z,6.08
2023-03-26T01:14:38.749Z,6.01
2023-03-26T01:17:09.208Z,5.96
2023-03-26T01:19:49.573Z,5.92
2023-03-26T01:22:27.691Z,5.91
2023-03-26T01:24:56.708Z,5.96
2023-03-26T01:27:50.678Z,5.95
2023-03-26T01:30:42.528Z,5.91
2023-03-26T01:33:17.658Z,5.93
2023-03-26T01:36:07.773Z,5.91
2023-03-26T01:39:00.613Z,5.86
2023-03-26T01:41:45.153Z,5.84
2023-03-26T01:44:38.162Z,5.76
2023-03-26T01:47:07.942Z,5.68
2023-03-26T01:49:35.621Z,5.64
2023-03-26T01:52:06.349Z,5.60
2023-03-26T01:54:34.146Z,5.57
2023-03-26T01:57:20.441Z,5.50
2023-03-26T02:00:20.888Z,5.56
2023-03-26T02:02:59.399Z,5.47
2023-03-26T02:05:49.055Z,5.51
2023-03-26T02:08:38.543Z,5.43
2023-03-26T02:11:11.828Z,5.44
2023-03-26T02:13:45.874Z,5.47
2023-03-26T02:16:17.598Z,5.47
2023-03-26T02:18:47.442Z,5.41
2023-03-26T02:21:20.453Z,5.29
2023-03-26T02:24:02.857Z,5.44
2023-03-26T02:26:35.763Z,5.61
2023-03-26T02:29:10.260Z,5.61
2023-03-26T02:31:40.000Z,5.56
2023-03-26T02:34:07.540Z,5.55
2023-03-26T02:36:38.125Z,5.55
2023-03-26T02:39:05.781Z,5.46
2023-03-26T02:41:38.733Z,5.41
2023-03-26T02:44:09.568Z,5.30
2023-03-26T02:46:57.193Z,5.35
2023-03-26T02:49:43.636Z,5.36
2023-03-26T02:52:17.242Z,5.35
2023-03-26T02:54:45.185Z,5.30
2023-03-26T02:57:18.493Z,5.33
2023-03-26T03:00:15.974Z,5.34
2023-03-26T03:02:48.160Z,5.34
2023-03-26T03:05:33.597Z,5.40
2023-03-26T03:08:28.565Z,5.47
2023-03-26T03:11:10.654Z,5.43
2023-03-26T03:13:45.871Z,5.35
2023-03-26T03:16:17.942Z,5.33
2023-03-26T03:18:47.538Z,5.34
2023-03-26T03:21:15.301Z,5.28
2023-03-26T03:23:42.772Z,5.22
2023-03-26T03:26:18.196Z,5.17
2023-03-26T03:28:51.922Z,5.11
2023-03-26T03:31:19.758Z,5.06
2023-03-26T03:33:47.327Z,5.03
2023-03-26T03:36:20.177Z,5.01
2023-03-26T03:38:51.287Z,4.98
2023-03-26T03:41:21.214Z,4.96
2023-03-26T03:43:48.782Z,4.99
2023-03-26T03:46:21.395Z,5.04
2023-03-26T03:48:49.979Z,4.98
2023-03-26T03:51:25.603Z,4.95
2023-03-26T03:54:05.073Z,4.86
2023-03-26T03:56:52.436Z,4.85
2023-03-26T03:59:31.852Z,4.92
2023-03-26T04:02:00.027Z,4.95
2023-03-26T04:04:34.456Z,4.93
2023-03-26T04:07:06.039Z,4.85
2023-03-26T04:09:50.176Z,4.74
2023-03-26T04:12:19.935Z,4.68
2023-03-26T04:14:56.354Z,4.61
2023-03-26T04:17:26.159Z,4.53
2023-03-26T04:19:56.149Z,4.50
2023-03-26T04:22:36.384Z,4.51
2023-03-26T04:25:07.652Z,4.57
2023-03-26T04:27:41.614Z,4.66
2023-03-26T04:30:27.775Z,4.76
2023-03-26T04:33:06.479Z,4.82
2023-03-26T04:35:41.841Z,4.86
2023-03-26T04:38:12.108Z,4.89
2023-03-26T04:40:47.422Z,4.96
2023-03-26T04:43:42.333Z,5.02
2023-03-26T04:46:35.819Z,5.06
2023-03-26T04:49:17.182Z,5.11
2023-03-26T04:51:46.853Z,5.18
2023-03-26T04:54:37.139Z,5.22
2023-03-26T04:57:20.584Z,5.24
2023-03-26T04:59:59.691Z,5.33
2023-03-26T05:02:32.637Z,5.43
2023-03-26T05:05:02.884Z,5.46
2023-03-26T05:07:33.221Z,5.49
2023-03-26T05:10:03.719Z,5.49
2023-03-26T05:12:37.353Z,5.39
2023-03-26T05:15:11.937Z,5.47
2023-03-26T05:18:02.649Z,5.35
2023-03-26T05:20:36.891Z,5.48
2023-03-26T05:23:08.023Z,5.61
2023-03-26T05:25:41.700Z,5.69
2023-03-26T05:28:24.333Z,5.81
2023-03-26T05:31:08.234Z,5.97
2023-03-26T05:33:39.708Z,6.14
2023-03-26T05:36:15.921Z,6.26
2023-03-26T05:38:52.371Z,6.45
2023-03-26T05:41:39.803Z,6.68
2023-03-26T05:44:07.312Z,10.44
2023-03-26T05:46:34.885Z,15.26
2023-03-26T05:49:02.724Z,17.72
2023-03-26T05:51:34.307Z,18.91
2023-03-26T05:54:21.648Z,19.54
2023-03-26T05:57:09.352Z,18.70
2023-03-26T05:59:59.979Z,18.41
2023-03-26T06:02:46.925Z,19.08
2023-03-26T06:05:49.821Z,19.36
2023-03-26T06:08:22.078Z,18.95
2023-03-26T06:10:58.945Z,19.12
2023-03-26T06:13:27.455Z,19.40
2023-03-26T06:15:55.182Z,20.39
2023-03-26T06:18:27.443Z,20.72
2023-03-26T06:21:20.890Z,20.61
2023-03-26T06:23:56.358Z,20.91
2023-03-26T06:26:49.701Z,21.02
2023-03-26T06:29:35.504Z,21.64
2023-03-26T06:32:20.191Z,22.05
2023-03-26T06:34:54.341Z,22.41
2023-03-26T06:37:21.767Z,23.52
2023-03-26T06:39:53.906Z,24.49
2023-03-26T06:43:07.042Z,24.74
2023-03-26T06:45:42.553Z,25.78
2023-03-26T06:48:36.118Z,26.39
2023-03-26T06:51:30.692Z,27.27
2023-03-26T06:54:27.581Z,26.94
2023-03-26T06:57:04.673Z,25.19
2023-03-26T06:59:50.795Z,22.85
2023-03-26T07:02:37.122Z,20.64
2023-03-26T07:05:23.289Z,20.36
2023-03-26T07:08:25.080Z,18.68
2023-03-26T07:11:12.045Z,17.81
2023-03-26T07:14:02.421Z,17.92
2023-03-26T07:16:49.084Z,18.95
2023-03-26T07:19:39.406Z,20.28
2023-03-26T07:22:07.416Z,21.61
2023-03-26T07:24:54.208Z,22.45
2023-03-26T07:28:02.852Z,21.23
2023-03-26T07:31:44.310Z,22.69
2023-03-26T07:34:44.656Z,25.88
2023-03-26T07:38:27.644Z,24.64
2023-03-26T07:41:43.963Z,25.99
2023-03-26T07:45:12.769Z,26.06
2023-03-26T07:48:04.643Z,28.27
2023-03-26T07:50:46.257Z,29.39
2023-03-26T07:53:43.765Z,28.43
2023-03-26T07:56:40.847Z,25.25
2023-03-26T08:00:12.427Z,26.22
2023-03-26T08:03:32.043Z,27.39
2023-03-26T08:06:39.693Z,30.14
2023-03-26T08:09:35.634Z,25.67
2023-03-26T08:12:58.380Z,29.63
2023-03-26T08:15:57.716Z,31.55
2023-03-26T08:19:06.209Z,30.23
2023-03-26T08:21:53.621Z,27.58
2023-03-26T08:24:44.184Z,27.39
2023-03-26T08:27:30.875Z,26.19
2023-03-26T08:30:08.418Z,24.00
2023-03-26T08:32:36.488Z,22.87
2023-03-26T08:35:04.511Z,24.45
2023-03-26T08:37:32.019Z,24.55
2023-03-26T08:39:59.446Z,24.96
2023-03-26T08:43:19.404Z,25.30
2023-03-26T08:46:27.047Z,24.06
2023-03-26T08:49:03.376Z,25.21
2023-03-26T08:52:22.727Z,25.34
2023-03-26T08:55:08.228Z,25.42
2023-03-26T08:58:10.115Z,25.37
2023-03-26T09:01:17.685Z,25.19
2023-03-26T09:04:15.587Z,25.22
2023-03-26T09:07:26.565Z,24.26
2023-03-26T09:10:09.450Z,23.35
2023-03-26T09:13:27.948Z,22.91
2023-03-26T09:16:26.729Z,21.33
2023-03-26T09:19:08.384Z,21.68
2023-03-26T09:22:26.340Z,20.90
2023-03-26T09:25:18.547Z,21.69
2023-03-26T09:28:33.815Z,21.06
2023-03-26T09:32:04.848Z,21.48
2023-03-26T09:35:08.043Z,20.37
2023-03-26T09:38:23.271Z,20.87
2023-03-26T09:41:08.705Z,20.51
2023-03-26T09:43:59.305Z,21.73
2023-03-26T09:46:54.027Z,22.39
2023-03-26T09:50:11.780Z,22.30
2023-03-26T09:52:47.205Z,22.61
2023-03-26T09:55:49.975Z,22.65
2023-03-26T09:58:26.150Z,23.73
2023-03-26T10:01:18.381Z,23.48
2023-03-26T10:03:59.508Z,23.29
2023-03-26T10:07:05.432Z,22.39
2023-03-26T10:09:51.235Z,22.79
2023-03-26T10:12:42.564Z,22.90
2023-03-26T10:15:54.004Z,22.71
2023-03-26T10:19:20.112Z,23.35
2023-03-26T10:22:28.642Z,23.74
2023-03-26T10:25:14.103Z,24.50
2023-03-26T10:28:04.310Z,22.70
2023-03-26T10:31:17.273Z,23.03
2023-03-26T10:34:28.823Z,23.26
2023-03-26T10:37:57.387Z,23.34
2023-03-26T10:40:47.909Z,23.82
2023-03-26T10:43:42.542Z,23.36
2023-03-26T10:46:22.477Z,24.12
2023-03-26T10:49:14.533Z,23.09
2023-03-26T10:51:58.892Z,23.36
2023-03-26T10:54:57.954Z,22.50
2023-03-26T10:57:53.075Z,22.56
2023-03-26T11:00:27.329Z,21.61
2023-03-26T11:03:25.656Z,21.13
2023-03-26T11:06:11.971Z,20.94
2023-03-26T11:09:24.155Z,21.40
2023-03-26T11:12:28.343Z,20.62
2023-03-26T11:14:55.853Z,20.74
2023-03-26T11:17:51.131Z,20.93
2023-03-26T11:20:48.266Z,19.61
2023-03-26T11:23:30.517Z,20.40
2023-03-26T11:26:02.815Z,21.38
2023-03-26T11:29:03.187Z,21.84
2023-03-26T11:31:58.277Z,22.37
2023-03-26T11:34:40.465Z,22.09
2023-03-26T11:37:20.087Z,22.03
2023-03-26T11:39:56.795Z,20.38
2023-03-26T11:42:25.759Z,20.80
2023-03-26T11:44:58.964Z,20.42
2023-03-26T11:47:57.473Z,21.37
2023-03-26T11:50:32.684Z,21.17
2023-03-26T11:53:17.700Z,21.47
2023-03-26T11:56:26.000Z,20.78
2023-03-26T11:59:11.404Z,20.45
2023-03-26T12:02:04.865Z,20.80
2023-03-26T12:04:50.902Z,20.73
2023-03-26T12:07:32.864Z,20.57
2023-03-26T12:10:18.659Z,20.59
2023-03-26T12:12:48.706Z,19.90
2023-03-26T12:15:20.054Z,19.07
2023-03-26T12:17:53.682Z,19.92
2023-03-26T12:20:24.903Z,20.16
2023-03-26T12:23:05.075Z,20.52
2023-03-26T12:25:39.162Z,20.02
2023-03-26T12:28:19.142Z,20.48
2023-03-26T12:31:02.519Z,20.42
2023-03-26T12:33:38.796Z,20.58
2023-03-26T12:36:31.162Z,20.81
2023-03-26T12:39:16.906Z,21.06
2023-03-26T12:44:42.800Z,20.77
2023-03-26T12:44:59.170Z,20.73
2023-03-26T12:48:01.203Z,20.59
2023-03-26T12:50:33.976Z,20.68
2023-03-26T12:53:50.383Z,20.25
2023-03-26T12:57:12.147Z,19.97
2023-03-26T13:00:13.993Z,20.11
2023-03-26T13:02:59.062Z,20.22
2023-03-26T13:05:52.184Z,19.96
2023-03-26T13:08:53.274Z,19.46
2023-03-26T13:12:20.363Z,19.97
2023-03-26T13:15:38.591Z,19.81
2023-03-26T13:18:33.511Z,19.27
2023-03-26T13:21:12.696Z,19.80
2023-03-26T13:23:59.360Z,19.37
2023-03-26T13:26:45.401Z,19.81
2023-03-26T13:29:56.756Z,19.27
2023-03-26T13:32:46.440Z,19.22
2023-03-26T13:36:23.070Z,18.88
2023-03-26T13:39:20.764Z,19.12
2023-03-26T13:42:37.856Z,19.30
2023-03-26T13:45:32.707Z,19.40
2023-03-26T13:48:05.793Z,19.07
2023-03-26T13:50:41.359Z,18.86
2023-03-26T13:53:22.641Z,19.18
2023-03-26T13:55:57.225Z,18.91
2023-03-26T13:58:54.081Z,19.16
2023-03-26T14:01:35.132Z,19.55
2023-03-26T14:04:17.863Z,19.48
2023-03-26T14:07:12.385Z,19.33
2023-03-26T14:09:59.361Z,19.04
2023-03-26T14:12:49.456Z,19.01
2023-03-26T14:16:12.694Z,18.78
2023-03-26T14:19:18.105Z,18.85
2023-03-26T14:21:58.068Z,18.77
2023-03-26T14:24:56.604Z,18.88
2023-03-26T14:27:54.887Z,19.25
2023-03-26T14:30:56.476Z,19.29
2023-03-26T14:33:42.046Z,19.54
2023-03-26T14:36:50.979Z,19.30
2023-03-26T14:39:23.920Z,19.14
2023-03-26T14:41:59.165Z,19.65
2023-03-26T14:44:59.592Z,19.46
2023-03-26T14:47:27.858Z,19.22
2023-03-26T14:50:42.723Z,19.00
2023-03-26T14:53:28.641Z,18.85
2023-03-26T14:56:15.752Z,18.96
2023-03-26T14:59:17.031Z,18.93
2023-03-26T15:02:46.428Z,19.07
2023-03-26T15:06:16.788Z,19.26
2023-03-26T15:09:34.241Z,19.41
2023-03-26T15:12:41.143Z,19.33
2023-03-26T15:15:53.876Z,19.30
2023-03-26T15:19:04.167Z,18.94
2023-03-26T15:22:22.668Z,18.72
2023-03-26T15:25:47.432Z,18.91
2023-03-26T15:28:23.390Z,18.57
2023-03-26T15:31:06.534Z,18.62
2023-03-26T15:33:58.415Z,18.54
2023-03-26T15:37:12.933Z,18.51
2023-03-26T15:40:21.598Z,18.21
2023-03-26T15:43:13.229Z,18.02
2023-03-26T15:45:56.647Z,17.94
2023-03-26T15:49:03.680Z,17.86
2023-03-26T15:51:50.960Z,17.88
2023-03-26T15:55:14.428Z,17.69
2023-03-26T15:58:18.316Z,17.65
2023-03-26T16:01:35.145Z,17.59
2023-03-26T16:04:24.975Z,17.45
2023-03-26T16:07:03.786Z,17.38
2023-03-26T16:09:54.344Z,17.35
2023-03-26T16:12:53.229Z,17.26
2023-03-26T16:15:32.141Z,17.13
2023-03-26T16:18:15.545Z,17.05
2023-03-26T16:20:55.459Z,16.99
2023-03-26T16:24:12.596Z,16.90
2023-03-26T16:27:15.604Z,16.80
2023-03-26T16:30:01.442Z,16.73
2023-03-26T16:32:35.498Z,16.66
2023-03-26T16:35:39.136Z,16.66
2023-03-26T16:38:16.277Z,16.59
2023-03-26T16:40:56.805Z,16.50
2023-03-26T16:43:46.913Z,16.45
2023-03-26T16:46:51.754Z,16.37
2023-03-26T16:50:08.865Z,16.19
2023-03-26T16:52:58.921Z,16.11
2023-03-26T16:55:59.461Z,15.99
2023-03-26T16:58:36.742Z,15.85
2023-03-26T17:01:17.208Z,15.65
2023-03-26T17:04:23.622Z,15.45
2023-03-26T17:07:08.809Z,15.37
2023-03-26T17:10:04.163Z,15.32
2023-03-26T17:13:01.030Z,15.20
2023-03-26T17:15:48.317Z,14.88
2023-03-26T17:18:21.849Z,14.62
2023-03-26T17:21:09.333Z,14.45
2023-03-26T17:24:07.900Z,14.40
2023-03-26T17:27:05.569Z,14.22
2023-03-26T17:30:03.475Z,14.14
2023-03-26T17:33:14.238Z,14.35
2023-03-26T17:35:49.700Z,14.15
2023-03-26T17:38:17.120Z,14.22
2023-03-26T17:40:51.815Z,14.10
2023-03-26T17:43:47.938Z,14.20
2023-03-26T17:46:41.382Z,14.40
2023-03-26T17:49:19.024Z,14.35
2023-03-26T17:52:05.928Z,14.15
2023-03-26T17:54:44.354Z,14.13
2023-03-26T17:57:28.304Z,14.22
2023-03-26T18:00:01.804Z,14.43
2023-03-26T18:02:47.820Z,14.39
2023-03-26T18:05:17.516Z,14.52
2023-03-26T18:08:12.562Z,14.52
2023-03-26T18:11:26.615Z,14.35
2023-03-26T18:14:15.011Z,14.26
2023-03-26T18:17:08.619Z,14.31
2023-03-26T18:19:55.761Z,14.16
2023-03-26T18:22:29.120Z,14.17
2023-03-26T18:25:02.337Z,14.15
2023-03-26T18:27:38.984Z,13.97
2023-03-26T18:30:25.997Z,13.90
2023-03-26T18:33:12.409Z,13.81
2023-03-26T18:35:49.741Z,14.03
2023-03-26T18:38:36.459Z,13.77
2023-03-26T18:41:12.334Z,13.98
2023-03-26T18:43:43.527Z,13.97
2023-03-26T18:46:14.800Z,13.62
2023-03-26T18:48:43.661Z,13.43
2023-03-26T18:51:11.257Z,13.63
2023-03-26T18:53:49.059Z,13.63
2023-03-26T18:56:43.241Z,13.67
2023-03-26T18:59:40.923Z,13.60
2023-03-26T19:02:13.913Z,13.40
2023-03-26T19:04:46.650Z,13.42
2023-03-26T19:07:22.323Z,13.30
2023-03-26T19:09:54.756Z,13.09
2023-03-26T19:12:28.897Z,12.94
2023-03-26T19:15:03.451Z,12.98
2023-03-26T19:17:48.554Z,13.21
2023-03-26T19:20:24.635Z,13.38
2023-03-26T19:22:53.233Z,13.26
2023-03-26T19:25:44.479Z,13.31
2023-03-26T19:28:23.535Z,13.38
2023-03-26T19:31:06.386Z,13.30
2023-03-26T19:33:37.834Z,13.38
2023-03-26T19:36:14.716Z,13.33
2023-03-26T19:39:24.246Z,13.30
2023-03-26T19:41:58.454Z,13.22
2023-03-26T19:44:29.722Z,13.26
2023-03-26T19:47:08.790Z,13.29
2023-03-26T19:49:58.051Z,13.30
2023-03-26T19:52:36.488Z,13.29
2023-03-26T19:55:21.802Z,13.48
2023-03-26T19:57:49.242Z,13.63
2023-03-26T20:00:17.262Z,13.60
2023-03-26T20:02:46.561Z,13.49
2023-03-26T20:05:23.122Z,13.43
2023-03-26T20:07:51.031Z,13.37
2023-03-26T20:10:18.995Z,13.38
2023-03-26T20:12:46.360Z,13.38
2023-03-26T20:15:25.623Z,13.45
2023-03-26T20:17:54.545Z,13.56
2023-03-26T20:20:27.251Z,13.42
2023-03-26T20:22:55.302Z,13.43
2023-03-26T20:25:33.841Z,13.33
2023-03-26T20:28:01.293Z,13.27
2023-03-26T20:30:37.269Z,13.36
2023-03-26T20:33:12.064Z,13.30
2023-03-26T20:35:41.619Z,13.23
2023-03-26T20:38:10.299Z,12.96
2023-03-26T20:40:38.620Z,12.77
2023-03-26T20:43:11.744Z,12.62
2023-03-26T20:45:39.831Z,12.50
2023-03-26T20:48:10.630Z,12.52
2023-03-26T20:50:50.307Z,12.35
2023-03-26T20:53:19.047Z,12.47
2023-03-26T20:55:47.954Z,12.43
2023-03-26T20:58:31.366Z,12.54
2023-03-26T21:01:02.237Z,12.50
2023-03-26T21:03:30.080Z,12.59
2023-03-26T21:06:02.820Z,12.53
2023-03-26T21:08:34.310Z,12.41
2023-03-26T21:11:04.837Z,12.54
2023-03-26T21:14:04.247Z,12.48
2023-03-26T21:16:32.472Z,12.38
2023-03-26T21:19:00.180Z,12.36
2023-03-26T21:21:57.721Z,12.29
2023-03-26T21:25:00.726Z,12.08
2023-03-26T21:27:58.037Z,11.97
2023-03-26T21:30:26.004Z,11.93
2023-03-26T21:32:53.763Z,11.86
2023-03-26T21:35:22.014Z,12.05
2023-03-26T21:37:50.855Z,11.93
2023-03-26T21:40:19.547Z,11.88
2023-03-26T21:42:51.538Z,11.85
2023-03-26T21:45:20.544Z,11.76
2023-03-26T21:47:49.148Z,11.86
2023-03-26T21:50:21.749Z,11.91
2023-03-26T21:52:51.717Z,11.95
2023-03-26T21:55:24.377Z,11.92
2023-03-26T21:58:07.381Z,11.93
2023-03-26T22:01:03.776Z,11.87
2023-03-26T22:04:07.511Z,11.78
2023-03-26T22:07:05.852Z,11.90
2023-03-26T22:09:36.085Z,12.09
2023-03-26T22:12:05.463Z,12.17
2023-03-26T22:14:33.779Z,12.13
2023-03-26T22:17:01.163Z,12.19
2023-03-26T22:19:30.368Z,12.23
2023-03-26T22:21:58.414Z,12.33
2023-03-26T22:24:26.217Z,12.46
2023-03-26T22:26:53.952Z,12.63
2023-03-26T22:29:21.408Z,12.75
2023-03-26T22:31:48.782Z,12.90
2023-03-26T22:34:16.667Z,12.75
2023-03-26T22:36:44.112Z,12.64
2023-03-26T22:39:12.253Z,12.62
2023-03-26T22:41:39.696Z,12.72
2023-03-26T22:44:19.203Z,12.72
2023-03-26T22:46:51.300Z,12.67
2023-03-26T22:49:19.127Z,12.63
2023-03-26T22:51:46.963Z,12.66
2023-03-26T22:54:14.644Z,12.64
2023-03-26T22:56:42.027Z,12.65
2023-03-26T22:59:09.555Z,12.69
2023-03-26T23:01:37.112Z,12.74
2023-03-26T23:04:04.745Z,12.76
2023-03-26T23:06:32.348Z,12.83
2023-03-26T23:08:59.779Z,12.91
2023-03-26T23:11:29.604Z,12.96
2023-03-26T23:13:57.042Z,13.05
2023-03-26T23:16:24.530Z,13.16
2023-03-26T23:18:52.359Z,13.30
2023-03-26T23:21:21.797Z,13.18
2023-03-26T23:23:52.263Z,13.03
2023-03-26T23:26:19.882Z,12.96
2023-03-26T23:28:47.934Z,12.99
2023-03-26T23:31:15.449Z,13.02
2023-03-26T23:33:45.763Z,12.99
2023-03-26T23:36:18.436Z,12.99
2023-03-26T23:38:48.432Z,12.95
2023-03-26T23:41:19.722Z,12.98
2023-03-26T23:43:55.520Z,12.99
2023-03-26T23:46:30.203Z,13.08
2023-03-26T23:49:03.410Z,13.05
2023-03-26T23:51:32.316Z,12.92
2023-03-26T23:54:01.582Z,12.82
2023-03-26T23:56:30.048Z,12.77
2023-03-26T23:58:59.199Z,12.76
